Time;durP1;ratioP1;P1;durP2;ratioP2;P2;SDS_P1;SDS_P2;PMS_P1;PMS_P2;Temp;Humidity;BMP_temperature;BMP_pressure;BME280_temperature;BME280_humidity;BME280_pressure;Samples;Min_cycle;Max_cycle;Signal;HPM_P1;HPM_P2
2021/05/02 00:01:15;;;;;;;2.30;0.42;;;;;;;14.79;85.54;100441.31;1729806;82;21155;-50
2021/05/02 00:03:44;;;;;;;0.20;0.20;;;;;;;14.65;86.73;100437.75;1729456;81;21129;-44
2021/05/02 00:06:12;;;;;;;0.28;0.28;;;;;;;14.53;87.96;100414.89;1703092;82;21215;-44
2021/05/02 00:08:41;;;;;;;0.55;0.55;;;;;;;14.39;88.98;100394.80;1729558;81;21165;-44
2021/05/02 00:11:10;;;;;;;0.20;0.20;;;;;;;14.26;90.16;100392.88;1732360;82;21106;-49
2021/05/02 00:13:40;;;;;;;1.12;0.30;;;;;;;14.13;91.29;100384.89;1732249;82;21110;-49
2021/05/02 00:16:07;;;;;;;0.85;0.85;;;;;;;14.05;92.34;100390.54;1732233;82;21122;-48
2021/05/02 00:18:35;;;;;;;0.30;0.20;;;;;;;14.00;93.22;100400.25;1731756;81;21712;-48
2021/05/02 00:21:06;;;;;;;0.40;0.40;;;;;;;13.97;94.06;100396.19;1701366;82;21635;-48
2021/05/02 00:23:35;;;;;;;0.53;0.40;;;;;;;13.92;94.74;100391.32;1732240;81;21126;-47
2021/05/02 00:26:04;;;;;;;0.20;0.20;;;;;;;13.89;95.38;100396.86;1732098;82;21137;-47
2021/05/02 00:28:33;;;;;;;0.35;0.35;;;;;;;13.86;96.05;100392.55;1732357;81;21110;-47
2021/05/02 00:31:06;;;;;;;1.47;0.20;;;;;;;13.83;96.73;100383.55;1732377;82;21177;-46
2021/05/02 00:33:35;;;;;;;1.07;0.20;;;;;;;13.79;97.30;100374.27;1732140;82;21134;-46
2021/05/02 00:36:04;;;;;;;0.28;0.28;;;;;;;13.75;97.81;100374.88;1702929;82;21457;-46
2021/05/02 00:38:37;;;;;;;0.42;0.30;;;;;;;13.72;98.41;100369.16;1727190;81;21138;-46
2021/05/02 00:41:07;;;;;;;;;;;;;;;13.69;98.98;100360.98;1734835;82;21149;-46
2021/05/02 00:43:57;;;;;;;0.30;0.15;;;;;;;13.67;99.51;100350.84;1732167;82;21174;-46
2021/05/02 00:46:38;;;;;;;0.62;0.45;;;;;;;13.64;99.95;100338.30;1732311;82;21162;-46
2021/05/02 00:49:18;;;;;;;0.20;0.20;;;;;;;13.60;100.00;100331.23;1719556;81;21142;-46
2021/05/02 00:51:57;;;;;;;0.47;0.47;;;;;;;13.55;100.00;100337.62;1732170;82;21173;-46
2021/05/02 00:54:39;;;;;;;3.65;0.37;;;;;;;13.52;100.00;100325.86;1732271;81;21130;-46
2021/05/02 00:57:15;;;;;;;0.95;0.95;;;;;;;13.49;100.00;100321.55;1732568;81;21148;-46
2021/05/02 01:00:06;;;;;;;0.55;0.55;;;;;;;13.47;100.00;100315.53;1732033;82;21426;-46
2021/05/02 01:02:34;;;;;;;0.75;0.72;;;;;;;13.45;100.00;100309.52;1732144;82;21464;-46
2021/05/02 01:05:07;;;;;;;9.03;1.10;;;;;;;13.44;100.00;100298.30;1732224;82;21143;-46
2021/05/02 01:07:39;;;;;;;1.40;0.70;;;;;;;13.42;100.00;100300.53;1732403;82;21117;-45
2021/05/02 01:10:13;;;;;;;0.47;0.47;;;;;;;13.41;100.00;100299.72;1732476;81;21584;-45
2021/05/02 01:12:46;;;;;;;0.10;0.10;;;;;;;13.39;100.00;100302.52;1732588;82;21173;-45
2021/05/02 01:15:21;;;;;;;2.08;0.10;;;;;;;13.38;100.00;100300.87;1732615;82;21146;-45
2021/05/02 01:17:45;;;;;;;0.30;0.30;;;;;;;13.36;100.00;100308.61;1732098;82;21150;-45
2021/05/02 01:20:14;;;;;;;1.55;0.10;;;;;;;13.36;100.00;100303.12;1732388;82;21571;-45
2021/05/02 01:22:46;;;;;;;0.20;0.20;;;;;;;13.34;100.00;100293.25;1732635;82;21138;-45
2021/05/02 01:25:14;;;;;;;0.70;0.70;;;;;;;13.33;100.00;100283.96;1732700;81;21000;-45
2021/05/02 01:27:42;;;;;;;6.58;0.65;;;;;;;13.29;100.00;100285.67;1732572;82;21105;-45
2021/05/02 01:30:11;;;;;;;0.30;0.30;;;;;;;13.24;100.00;100287.10;1732504;81;21090;-45
2021/05/02 01:32:39;;;;;;;0.65;0.40;;;;;;;13.18;100.00;100284.17;1700586;82;21141;-45
2021/05/02 01:35:08;;;;;;;0.33;0.33;;;;;;;13.12;100.00;100293.05;1721762;81;21610;-45
2021/05/02 01:37:36;;;;;;;0.15;0.15;;;;;;;13.11;100.00;100290.07;1715876;82;21157;-45
2021/05/02 01:40:05;;;;;;;0.17;0.17;;;;;;;13.09;100.00;100289.55;1732664;82;21433;-45
2021/05/02 01:42:33;;;;;;;0.40;0.30;;;;;;;13.08;100.00;100278.30;1732580;82;21130;-45
2021/05/02 01:45:01;;;;;;;0.40;0.37;;;;;;;13.05;100.00;100272.86;1732385;82;21521;-45
2021/05/02 01:47:29;;;;;;;0.30;0.25;;;;;;;12.95;100.00;100264.00;1732148;82;21161;-44
2021/05/02 01:50:03;;;;;;;0.70;0.45;;;;;;;12.85;100.00;100260.30;1678396;82;21166;-45
2021/05/02 01:52:34;;;;;;;3.00;0.30;;;;;;;12.79;100.00;100255.22;1732561;82;21134;-45
2021/05/02 01:55:04;;;;;;;0.85;0.85;;;;;;;12.75;100.00;100265.95;1732558;81;21142;-45
2021/05/02 01:57:32;;;;;;;1.00;1.00;;;;;;;12.74;100.00;100261.59;1731891;81;21181;-45
2021/05/02 02:00:06;;;;;;;2.30;0.60;;;;;;;12.74;100.00;100268.45;1700870;82;21169;-44
2021/05/02 02:02:34;;;;;;;0.93;0.70;;;;;;;12.76;100.00;100270.87;1727712;82;21668;-45
2021/05/02 02:05:02;;;;;;;0.45;0.37;;;;;;;12.77;100.00;100274.70;1701469;82;21134;-45
2021/05/02 02:07:30;;;;;;;0.30;0.30;;;;;;;12.77;100.00;100267.84;1732194;82;21564;-45
2021/05/02 02:09:58;;;;;;;0.80;0.25;;;;;;;12.77;100.00;100274.70;1732059;81;21173;-45
2021/05/02 02:12:28;;;;;;;0.82;0.82;;;;;;;12.77;100.00;100281.55;1732352;82;21070;-45
2021/05/02 02:14:55;;;;;;;1.32;1.25;;;;;;;12.76;100.00;100278.56;1732043;81;21003;-45
2021/05/02 02:17:23;;;;;;;0.72;0.33;;;;;;;12.75;100.00;100276.11;1701771;82;21508;-44
2021/05/02 02:19:50;;;;;;;0.60;0.60;;;;;;;12.72;100.00;100275.34;1732592;81;21146;-45
2021/05/02 02:22:18;;;;;;;0.65;0.65;;;;;;;12.67;100.00;100276.23;1732712;82;21658;-45
2021/05/02 02:24:56;;;;;;;0.45;0.45;;;;;;;12.62;100.00;100270.83;1745941;80;21185;-44
2021/05/02 02:27:27;;;;;;;0.82;0.70;;;;;;;12.55;100.00;100273.12;1724052;83;21173;-45
2021/05/02 02:29:57;;;;;;;1.12;0.90;;;;;;;12.46;100.00;100271.06;1721885;81;21410;-45
2021/05/02 02:32:25;;;;;;;1.20;1.02;;;;;;;12.40;100.00;100264.57;1724017;82;21146;-45
2021/05/02 02:34:55;;;;;;;1.77;0.93;;;;;;;12.37;100.00;100263.80;1724095;82;21150;-45
2021/05/02 02:37:24;;;;;;;3.90;0.88;;;;;;;12.37;100.00;100263.23;1723594;83;21573;-45
2021/05/02 02:39:59;;;;;;;0.30;0.30;;;;;;;12.37;100.00;100264.61;1723865;83;21408;-44
2021/05/02 02:42:28;;;;;;;0.88;0.45;;;;;;;12.36;100.00;100252.00;1723867;82;21126;-44
2021/05/02 02:44:58;;;;;;;0.80;0.80;;;;;;;12.32;100.00;100248.24;1732161;81;21110;-45
2021/05/02 02:47:50;;;;;;;0.60;0.55;;;;;;;12.30;100.00;100247.72;1732240;82;21445;-45
2021/05/02 02:50:19;;;;;;;1.83;0.67;;;;;;;12.29;100.00;100246.10;1732387;82;21176;-44
2021/05/02 02:52:52;;;;;;;2.00;1.05;;;;;;;12.26;100.00;100239.30;1732199;82;21679;-44
2021/05/02 02:55:21;;;;;;;0.25;0.25;;;;;;;12.23;100.00;100239.86;1732492;81;21631;-44
2021/05/02 02:57:58;;;;;;;1.32;1.27;;;;;;;12.24;100.00;100239.33;1738085;81;21716;-45
2021/05/02 03:00:29;;;;;;;0.33;0.33;;;;;;;12.26;100.00;100246.67;1734978;82;21119;-45
2021/05/02 03:03:10;;;;;;;0.75;0.75;;;;;;;12.30;100.00;100240.87;1734725;82;21596;-45
2021/05/02 03:05:37;;;;;;;0.40;0.40;;;;;;;12.33;100.00;100241.64;1747314;81;21147;-44
2021/05/02 03:08:08;;;;;;;0.90;0.70;;;;;;;12.38;100.00;100244.30;1708449;83;21167;-45
2021/05/02 03:10:36;;;;;;;1.80;1.12;;;;;;;12.43;100.00;100251.64;1749090;81;21603;-44
2021/05/02 03:13:05;;;;;;;0.60;0.60;;;;;;;12.47;100.00;100256.23;1749126;82;21153;-44
2021/05/02 03:15:35;;;;;;;0.20;0.20;;;;;;;12.54;100.00;100245.47;1736376;82;21155;-44
2021/05/02 03:18:07;;;;;;;1.55;0.30;;;;;;;12.59;100.00;100248.13;1737488;81;21552;-44
2021/05/02 03:20:39;;;;;;;1.02;0.80;;;;;;;12.65;100.00;100248.30;1728874;81;21146;-44
2021/05/02 03:23:13;;;;;;;1.17;0.98;;;;;;;12.70;100.00;100250.95;1756203;80;20997;-44
2021/05/02 03:25:43;;;;;;;0.42;0.42;;;;;;;12.76;100.00;100252.52;1755841;81;21119;-44
2021/05/02 03:28:19;;;;;;;0.30;0.30;;;;;;;12.82;100.00;100255.98;1725905;81;21149;-44
2021/05/02 03:30:47;;;;;;;0.20;0.20;;;;;;;12.86;100.00;100255.09;1712245;81;21122;-44
2021/05/02 03:33:15;;;;;;;0.25;0.25;;;;;;;12.94;100.00;100247.30;1755987;81;21135;-45
2021/05/02 03:35:45;;;;;;;0.55;0.53;;;;;;;12.99;100.00;100245.84;1755875;81;21115;-45
2021/05/02 03:38:29;;;;;;;1.40;1.30;;;;;;;13.03;100.00;100245.47;1726551;80;21154;-44
2021/05/02 03:40:59;;;;;;;0.53;0.53;;;;;;;13.06;100.00;100238.84;1756206;81;21198;-44
2021/05/02 03:43:27;;;;;;;0.75;0.75;;;;;;;13.11;100.00;100240.13;1728831;80;21549;-45
2021/05/02 03:45:55;;;;;;;0.90;0.60;;;;;;;13.16;100.00;100243.34;1756086;81;21206;-45
2021/05/02 03:48:22;;;;;;;0.90;0.90;;;;;;;13.21;100.00;100250.11;1728014;80;21147;-45
2021/05/02 03:50:50;;;;;;;0.30;0.30;;;;;;;13.26;100.00;100242.34;1756133;81;21139;-44
2021/05/02 03:53:17;;;;;;;3.25;1.42;;;;;;;13.31;100.00;100244.46;1756091;80;21442;-44
2021/05/02 03:55:46;;;;;;;1.17;0.90;;;;;;;13.37;100.00;100245.17;1726539;81;22331;-44
2021/05/02 03:58:15;;;;;;;0.53;0.40;;;;;;;13.42;100.00;100254.68;1749189;81;21390;-45
2021/05/02 04:00:43;;;;;;;1.25;1.17;;;;;;;13.47;100.00;100255.95;1732103;82;21110;-45
2021/05/02 04:03:13;;;;;;;2.08;0.82;;;;;;;13.52;100.00;100261.91;1732370;82;21154;-45
2021/05/02 04:05:42;;;;;;;1.47;0.80;;;;;;;13.55;100.00;100261.33;1732141;82;21462;-44
2021/05/02 04:08:10;;;;;;;0.62;0.55;;;;;;;13.58;100.00;100248.92;1732360;82;21635;-45
2021/05/02 04:10:38;;;;;;;0.25;0.25;;;;;;;13.62;100.00;100249.92;1732444;82;21121;-44
2021/05/02 04:13:06;;;;;;;0.65;0.65;;;;;;;13.67;100.00;100248.45;1731652;82;21149;-44
2021/05/02 04:15:34;;;;;;;0.80;0.72;;;;;;;13.73;100.00;100250.80;1730805;82;20983;-44
2021/05/02 04:18:01;;;;;;;0.95;0.78;;;;;;;13.80;100.00;100244.06;1732446;82;21173;-45
2021/05/02 04:20:29;;;;;;;0.50;0.50;;;;;;;13.86;100.00;100245.61;1732260;82;21137;-44
2021/05/02 04:22:57;;;;;;;0.40;0.28;;;;;;;13.93;100.00;100235.83;1732270;82;21158;-45
2021/05/02 04:25:26;;;;;;;0.47;0.40;;;;;;;14.00;100.00;100239.55;1732144;81;21146;-44
2021/05/02 04:27:53;;;;;;;0.33;0.33;;;;;;;14.10;100.00;100248.94;1732244;82;21122;-44
2021/05/02 04:30:21;;;;;;;1.22;1.00;;;;;;;14.17;100.00;100242.47;1732388;81;21165;-45
2021/05/02 04:32:48;;;;;;;0.68;0.68;;;;;;;14.26;100.00;100239.78;1732149;82;21142;-45
2021/05/02 04:35:16;;;;;;;1.12;1.02;;;;;;;14.35;100.00;100239.88;1732195;81;21493;-45
2021/05/02 04:37:45;;;;;;;0.72;0.70;;;;;;;14.43;100.00;100240.50;1732221;82;21177;-44
2021/05/02 04:40:14;;;;;;;0.25;0.25;;;;;;;14.50;100.00;100240.89;1714579;82;21114;-45
2021/05/02 04:42:41;;;;;;;0.90;0.85;;;;;;;14.56;100.00;100242.45;1732274;82;21175;-44
2021/05/02 04:45:11;;;;;;;2.17;1.07;;;;;;;14.63;100.00;100242.80;1732102;81;21679;-44
2021/05/02 04:47:39;;;;;;;1.60;1.00;;;;;;;14.71;100.00;100237.68;1732275;82;21141;-45
2021/05/02 04:50:08;;;;;;;0.70;0.70;;;;;;;14.74;100.00;100235.70;1732381;81;21163;-45
2021/05/02 04:52:35;;;;;;;1.27;1.20;;;;;;;14.78;100.00;100240.81;1732194;82;21156;-45
2021/05/02 04:55:03;;;;;;;0.93;0.93;;;;;;;14.81;100.00;100237.43;1732210;82;21158;-44
2021/05/02 04:57:31;;;;;;;0.70;0.70;;;;;;;14.84;100.00;100241.76;1732212;82;21407;-44
2021/05/02 04:59:59;;;;;;;0.50;0.50;;;;;;;14.92;100.00;100240.76;1727396;81;21174;-44
2021/05/02 05:02:27;;;;;;;0.45;0.45;;;;;;;15.05;100.00;100237.11;1726207;82;21209;-45
2021/05/02 05:04:54;;;;;;;1.02;0.75;;;;;;;15.25;100.00;100224.18;1699540;83;21655;-44
2021/05/02 05:07:21;;;;;;;3.40;1.95;;;;;;;15.49;100.00;100225.19;1706329;82;21573;-44
2021/05/02 05:09:49;;;;;;;0.72;0.72;;;;;;;15.75;100.00;100221.77;1692498;84;21744;-44
2021/05/02 05:12:17;;;;;;;0.60;0.60;;;;;;;15.99;100.00;100215.80;1709638;83;21412;-44
2021/05/02 05:14:45;;;;;;;1.12;1.02;;;;;;;16.18;100.00;100216.90;1723615;83;21414;-44
2021/05/02 05:17:12;;;;;;;0.15;0.15;;;;;;;16.34;100.00;100218.60;1725586;82;21098;-44
2021/05/02 05:19:41;;;;;;;2.20;1.32;;;;;;;16.51;100.00;100218.60;1696454;84;21208;-44
2021/05/02 05:22:08;;;;;;;1.20;0.90;;;;;;;16.75;100.00;100214.55;1727024;83;21592;-44
2021/05/02 05:24:38;;;;;;;2.20;1.52;;;;;;;16.95;100.00;100215.84;1694767;83;21581;-45
2021/05/02 05:27:10;;;;;;;0.90;0.60;;;;;;;17.13;100.00;100211.88;1726998;83;21129;-44
2021/05/02 05:29:40;;;;;;;1.27;1.17;;;;;;;17.27;98.28;100215.83;1703511;82;21123;-45
2021/05/02 05:32:08;;;;;;;1.82;1.55;;;;;;;17.38;96.16;100213.52;1709737;83;21531;-44
2021/05/02 05:34:35;;;;;;;3.70;1.52;;;;;;;17.47;94.94;100217.05;1705058;84;21138;-45
2021/05/02 05:37:03;;;;;;;2.40;1.47;;;;;;;17.56;93.19;100221.17;1734891;82;21090;-45
2021/05/02 05:39:31;;;;;;;1.15;0.80;;;;;;;17.66;92.88;100217.23;1723401;81;21103;-45
2021/05/02 05:41:59;;;;;;;1.17;0.53;;;;;;;17.74;91.36;100216.37;1720394;82;21552;-45
2021/05/02 05:44:27;;;;;;;2.65;2.22;;;;;;;17.79;89.91;100218.94;1739761;81;21160;-45
2021/05/02 05:46:55;;;;;;;1.27;1.25;;;;;;;17.88;89.08;100213.37;1740860;81;21137;-45
2021/05/02 05:49:23;;;;;;;1.80;1.50;;;;;;;17.94;87.42;100215.62;1739684;81;21156;-45
2021/05/02 05:54:31;;;;;;;1.20;1.17;;;;;;;18.17;85.91;100216.11;1856622;76;22679;-45
2021/05/02 05:56:58;;;;;;;1.67;0.90;;;;;;;18.19;86.14;100219.94;1820087;77;21102;-45
2021/05/02 05:59:28;;;;;;;2.60;2.40;;;;;;;18.22;85.61;100215.11;1842524;77;21440;-45
2021/05/02 06:01:59;;;;;;;2.12;0.95;;;;;;;18.28;85.24;100209.63;1844298;77;21151;-45
2021/05/02 06:04:31;;;;;;;4.80;1.87;;;;;;;18.35;84.64;100214.05;1853791;77;21545;-45
2021/05/02 06:07:01;;;;;;;0.50;0.50;;;;;;;18.43;84.75;100213.16;1751249;81;21150;-45
2021/05/02 06:09:29;;;;;;;0.70;0.70;;;;;;;18.51;84.83;100208.70;1763983;81;21115;-45
2021/05/02 06:11:56;;;;;;;1.27;0.82;;;;;;;18.65;85.02;100212.00;1788336;80;21446;-45
2021/05/02 06:14:24;;;;;;;0.80;0.80;;;;;;;18.80;84.98;100190.41;1795791;78;21116;-45
2021/05/02 06:16:53;;;;;;;1.95;1.32;;;;;;;18.94;83.53;100212.23;1769051;80;21138;-45
2021/05/02 06:19:21;;;;;;;1.45;1.32;;;;;;;19.07;83.10;100213.33;1771729;80;21131;-45
2021/05/02 06:21:49;;;;;;;0.53;0.37;;;;;;;19.20;82.51;100214.73;1768547;79;21119;-45
2021/05/02 06:24:17;;;;;;;1.10;1.10;;;;;;;19.36;81.11;100219.02;1789742;79;21577;-45
2021/05/02 06:26:45;;;;;;;1.67;1.50;;;;;;;19.46;79.84;100217.19;1782285;80;21154;-45
2021/05/02 06:29:13;;;;;;;1.07;1.07;;;;;;;19.54;79.81;100226.79;1749081;80;21142;-46
2021/05/02 06:31:41;;;;;;;1.52;1.42;;;;;;;19.61;78.37;100215.70;1774053;79;21153;-45
2021/05/02 06:34:10;;;;;;;0.95;0.90;;;;;;;19.63;77.19;100208.65;1785384;79;21136;-45
2021/05/02 06:36:40;;;;;;;1.10;0.95;;;;;;;19.62;76.47;100200.12;1788362;79;21138;-46
2021/05/02 06:39:09;;;;;;;1.98;1.37;;;;;;;19.64;75.54;100199.20;1769883;79;21155;-45
2021/05/02 06:41:38;;;;;;;3.60;1.45;;;;;;;19.66;74.43;100203.02;1774947;79;21110;-46
2021/05/02 06:44:07;;;;;;;0.90;0.90;;;;;;;19.68;74.24;100200.16;1753740;80;21590;-45
2021/05/02 06:46:37;;;;;;;1.00;0.85;;;;;;;19.71;73.85;100195.30;1773555;79;21126;-45
2021/05/02 06:49:07;;;;;;;1.00;0.90;;;;;;;19.75;73.72;100209.27;1769453;79;21128;-45
2021/05/02 06:51:38;;;;;;;0.75;0.70;;;;;;;19.84;73.32;100205.00;1770912;79;21155;-45
2021/05/02 06:54:06;;;;;;;0.90;0.90;;;;;;;19.93;73.01;100212.59;1783713;79;21460;-46
2021/05/02 06:56:34;;;;;;;1.70;1.25;;;;;;;20.01;73.02;100215.84;1814810;79;21134;-46
2021/05/02 06:59:03;;;;;;;0.60;0.60;;;;;;;20.08;72.13;100211.91;1782976;80;21438;-46
2021/05/02 07:01:31;;;;;;;0.88;0.88;;;;;;;20.17;70.58;100221.47;1785549;80;21120;-45
2021/05/02 07:03:59;;;;;;;1.92;1.82;;;;;;;20.21;70.21;100216.84;1783275;80;21135;-46
2021/05/02 07:06:31;;;;;;;1.02;0.90;;;;;;;20.25;69.44;100215.55;1796792;79;21466;-45
2021/05/02 07:08:58;;;;;;;3.17;1.40;;;;;;;20.34;69.57;100216.23;1768750;80;21509;-46
2021/05/02 07:11:27;;;;;;;2.17;0.62;;;;;;;20.50;70.05;100219.89;1783150;79;21118;-46
2021/05/02 07:13:54;;;;;;;1.98;1.55;;;;;;;20.70;69.40;100213.15;1783115;79;21565;-45
2021/05/02 07:16:22;;;;;;;1.17;1.02;;;;;;;20.85;68.80;100217.93;1796796;79;21150;-46
2021/05/02 07:18:51;;;;;;;2.12;0.88;;;;;;;20.94;68.87;100217.17;1813432;79;21562;-46
2021/05/02 07:21:20;;;;;;;5.42;1.22;;;;;;;21.03;69.28;100213.66;1757098;79;21459;-45
2021/05/02 07:23:52;;;;;;;3.55;1.37;;;;;;;21.10;68.82;100208.88;1775214;79;21481;-45
2021/05/02 07:26:22;;;;;;;0.62;0.60;;;;;;;21.16;68.84;100214.39;1777243;79;21178;-46
2021/05/02 07:28:50;;;;;;;1.57;1.47;;;;;;;21.22;68.30;100208.80;1777455;79;21142;-46
2021/05/02 07:31:18;;;;;;;0.82;0.80;;;;;;;21.28;68.13;100212.12;1791242;79;21121;-46
2021/05/02 07:33:45;;;;;;;0.78;0.78;;;;;;;21.29;66.90;100205.97;1769204;79;21147;-46
2021/05/02 07:36:14;;;;;;;0.90;0.78;;;;;;;21.25;66.48;100218.39;1790457;79;21122;-46
2021/05/02 07:38:42;;;;;;;1.25;0.98;;;;;;;21.21;65.80;100216.09;1780877;78;21162;-46
2021/05/02 07:41:10;;;;;;;1.50;0.88;;;;;;;21.13;66.13;100225.42;1789648;79;21149;-46
2021/05/02 07:43:40;;;;;;;2.08;1.00;;;;;;;21.05;65.53;100219.67;1793176;79;21951;-46
2021/05/02 07:46:08;;;;;;;3.55;1.52;;;;;;;20.99;65.72;100221.11;1767936;79;21138;-46
2021/05/02 07:48:36;;;;;;;0.90;0.65;;;;;;;20.92;65.59;100214.52;1766796;81;21433;-46
2021/05/02 07:51:05;;;;;;;1.40;0.75;;;;;;;20.88;65.77;100206.69;1769576;79;21687;-46
2021/05/02 07:53:32;;;;;;;0.75;0.75;;;;;;;20.81;64.76;100205.31;1781338;79;21155;-45
2021/05/02 07:56:00;;;;;;;2.80;1.25;;;;;;;20.77;64.43;100204.98;1765455;81;21122;-46
2021/05/02 07:58:27;;;;;;;2.60;1.95;;;;;;;20.73;64.37;100199.94;1765347;81;21210;-46
2021/05/02 08:00:55;;;;;;;1.22;0.98;;;;;;;20.75;65.04;100199.01;1765506;81;21157;-46
2021/05/02 08:03:23;;;;;;;1.00;0.65;;;;;;;20.78;64.47;100194.13;1737431;82;21151;-46
2021/05/02 08:05:51;;;;;;;1.15;0.80;;;;;;;20.79;64.16;100183.23;1737327;82;21206;-46
2021/05/02 08:08:19;;;;;;;4.65;1.27;;;;;;;20.79;63.61;100193.75;1748813;81;21214;-46
2021/05/02 08:10:49;;;;;;;1.67;1.37;;;;;;;20.79;63.78;100186.02;1756887;80;21578;-45
2021/05/02 08:13:18;;;;;;;1.82;1.70;;;;;;;20.83;64.02;100195.26;1776697;80;21483;-46
2021/05/02 08:15:45;;;;;;;1.40;1.30;;;;;;;20.87;63.98;100182.28;1744457;81;21174;-46
2021/05/02 08:18:14;;;;;;;1.95;1.05;;;;;;;20.89;64.52;100185.49;1759865;81;21679;-46
2021/05/02 08:20:42;;;;;;;0.55;0.53;;;;;;;20.91;64.28;100180.98;1764408;80;21150;-46
2021/05/02 08:23:10;;;;;;;3.22;1.55;;;;;;;20.88;63.87;100193.61;1759461;81;21241;-46
2021/05/02 08:25:38;;;;;;;1.20;1.07;;;;;;;20.88;64.32;100180.31;1766324;81;21126;-46
2021/05/02 08:28:06;;;;;;;1.10;1.10;;;;;;;20.91;64.80;100186.53;1765990;81;21166;-46
2021/05/02 08:30:34;;;;;;;1.12;1.05;;;;;;;20.97;64.39;100186.52;1750321;81;21159;-46
2021/05/02 08:33:01;;;;;;;0.90;0.88;;;;;;;21.02;64.38;100176.53;1756686;81;21146;-46
2021/05/02 08:35:29;;;;;;;1.10;0.95;;;;;;;21.06;64.49;100177.41;1752205;80;21517;-46
2021/05/02 08:37:56;;;;;;;0.93;0.80;;;;;;;21.09;64.48;100171.72;1777448;80;21557;-46
2021/05/02 08:40:24;;;;;;;0.78;0.78;;;;;;;21.11;64.30;100173.56;1761840;81;21668;-46
2021/05/02 08:42:52;;;;;;;6.47;2.98;;;;;;;21.11;64.45;100169.41;1763752;81;21664;-46
2021/05/02 08:45:20;;;;;;;3.95;2.05;;;;;;;21.10;63.66;100170.58;1763433;81;21138;-46
2021/05/02 08:47:49;;;;;;;1.95;1.32;;;;;;;21.11;63.92;100168.02;1744670;81;21574;-46
2021/05/02 08:50:19;;;;;;;1.75;1.55;;;;;;;21.10;64.53;100167.80;1737537;82;21562;-46
2021/05/02 08:52:47;;;;;;;1.17;1.05;;;;;;;21.03;64.56;100171.19;1763119;81;21466;-46
2021/05/02 08:55:14;;;;;;;3.17;1.17;;;;;;;20.97;64.33;100176.20;1779594;79;21183;-46
2021/05/02 08:57:42;;;;;;;0.78;0.78;;;;;;;20.89;64.91;100178.55;1704654;82;21174;-46
2021/05/02 09:00:10;;;;;;;0.57;0.57;;;;;;;20.83;65.17;100179.39;1717852;83;21439;-46
2021/05/02 09:02:41;;;;;;;1.30;1.20;;;;;;;20.79;65.30;100177.68;1739471;82;21159;-46
2021/05/02 09:05:09;;;;;;;1.25;1.15;;;;;;;20.71;65.29;100185.02;1728005;82;21154;-45
2021/05/02 09:07:42;;;;;;;0.95;0.95;;;;;;;20.60;65.64;100186.11;1739287;82;21158;-46
2021/05/02 09:10:12;;;;;;;0.75;0.75;;;;;;;20.45;65.87;100188.23;1752624;81;21174;-46
2021/05/02 09:12:41;;;;;;;2.27;0.98;;;;;;;20.35;66.50;100185.92;1769457;81;21125;-46
2021/05/02 09:15:20;;;;;;;0.70;0.70;;;;;;;20.31;66.63;100189.99;1736062;81;21035;-45
2021/05/02 09:20:54;;;;;;;2.23;1.23;;;;;;;20.36;66.79;100190.33;1831316;76;27762;-46
2021/05/02 09:23:21;;;;;;;0.88;0.68;;;;;;;20.31;66.73;100189.19;1813804;78;21110;-46
2021/05/02 09:25:52;;;;;;;1.92;1.60;;;;;;;20.36;66.64;100193.91;1785556;80;21129;-46
2021/05/02 09:28:44;;;;;;;0.85;0.82;;;;;;;20.44;66.34;100193.53;1779655;79;21142;-46
2021/05/02 09:31:17;;;;;;;1.20;1.17;;;;;;;20.53;66.43;100190.04;1783741;80;21414;-46
2021/05/02 09:33:45;;;;;;;0.98;0.90;;;;;;;20.58;66.31;100180.69;1781114;80;21547;-46
2021/05/02 09:36:16;;;;;;;1.32;0.98;;;;;;;20.54;66.26;100180.53;1785806;80;21676;-46
2021/05/02 09:38:44;;;;;;;0.62;0.62;;;;;;;20.58;66.27;100187.62;1785657;78;21173;-46
2021/05/02 09:41:13;;;;;;;2.08;1.17;;;;;;;20.60;65.93;100206.13;1784205;79;21111;-46
2021/05/02 09:43:50;;;;;;;1.45;1.35;;;;;;;20.59;65.87;100202.52;1785665;78;21573;-46
2021/05/02 09:49:15;;;;;;;1.50;1.40;;;;;;;20.38;66.24;100204.66;1785247;80;21002;-45
2021/05/02 09:51:46;;;;;;;2.95;1.25;;;;;;;20.22;67.34;100199.03;1785761;80;21512;-45
2021/05/02 09:54:18;;;;;;;0.75;0.68;;;;;;;20.03;68.86;100201.05;1786190;80;21145;-45
2021/05/02 09:56:53;;;;;;;1.80;1.02;;;;;;;19.84;70.39;100193.91;1785673;80;21122;-45
2021/05/02 09:59:34;;;;;;;1.20;1.10;;;;;;;19.36;74.33;100199.63;1773817;80;21150;-46
2021/05/02 10:02:16;;;;;;;2.33;1.72;;;;;;;19.36;74.33;100199.63;1781627;80;21462;-46
2021/05/02 10:04:52;;;;;;;2.50;0.68;;;;;;;19.12;75.84;100198.45;1758127;80;21105;-46
2021/05/02 10:07:22;;;;;;;1.80;0.78;;;;;;;18.90;77.09;100197.70;1745267;81;21123;-46
2021/05/02 10:09:51;;;;;;;1.47;1.00;;;;;;;18.74;78.07;100206.37;1751349;81;21131;-46
2021/05/02 10:12:19;;;;;;;1.72;1.52;;;;;;;18.52;78.96;100209.51;1714847;83;21218;-47
2021/05/02 10:14:49;;;;;;;1.75;0.88;;;;;;;18.32;80.29;100200.88;1695158;84;21533;-47
2021/05/02 10:17:17;;;;;;;1.62;1.52;;;;;;;18.13;81.01;100200.56;1709920;83;21177;-46
2021/05/02 10:19:45;;;;;;;3.52;3.02;;;;;;;17.94;82.02;100203.77;1704515;83;21160;-46
2021/05/02 10:22:13;;;;;;;1.20;1.07;;;;;;;17.74;82.61;100187.35;1730322;81;21130;-46
2021/05/02 10:24:40;;;;;;;1.90;1.65;;;;;;;17.59;83.41;100198.41;1718418;81;21099;-46
2021/05/02 10:27:10;;;;;;;0.57;0.47;;;;;;;17.47;83.90;100194.16;1719328;81;21796;-46
2021/05/02 10:29:40;;;;;;;2.90;1.72;;;;;;;17.36;84.39;100190.96;1690512;83;21143;-46
2021/05/02 10:32:11;;;;;;;1.15;1.02;;;;;;;17.32;85.30;100196.89;1723977;82;21146;-46
2021/05/02 10:34:43;;;;;;;1.42;1.07;;;;;;;17.29;85.89;100192.05;1716299;82;21173;-46
2021/05/02 10:37:27;;;;;;;2.55;1.77;;;;;;;17.26;86.26;100187.16;1718497;82;21669;-46
2021/05/02 10:40:07;;;;;;;1.55;1.45;;;;;;;17.22;87.15;100195.30;1705644;82;21141;-47
2021/05/02 10:42:44;;;;;;;2.17;1.98;;;;;;;17.16;87.60;100191.09;1703327;82;21173;-47
2021/05/02 10:45:34;;;;;;;3.62;1.70;;;;;;;17.11;88.73;100195.41;1716037;82;21134;-47
2021/05/02 10:48:09;;;;;;;2.17;1.32;;;;;;;17.06;89.81;100196.42;1783078;80;21130;-47
2021/05/02 10:50:45;;;;;;;1.98;1.27;;;;;;;16.98;90.64;100187.58;1783653;80;21158;-43
2021/05/02 10:53:17;;;;;;;2.75;1.35;;;;;;;16.86;91.24;100200.66;1785130;80;21121;-46
2021/05/02 10:56:03;;;;;;;;;;;;;;;16.76;92.08;100196.30;1787779;80;21428;-46
2021/05/02 10:58:38;;;;;;;2.12;1.85;;;;;;;16.68;92.58;100180.55;1785113;80;20307;-46
2021/05/02 11:01:10;;;;;;;1.32;1.22;;;;;;;16.65;93.14;100185.34;1785187;80;21114;-46
2021/05/02 11:03:50;;;;;;;0.50;0.45;;;;;;;16.62;93.41;100181.87;1785654;80;21169;-46
2021/05/02 11:06:43;;;;;;;0.50;0.50;;;;;;;16.63;93.53;100182.09;1784765;80;21134;-46
2021/05/02 11:11:56;;;;;;;0.50;0.45;;;;;;;16.71;92.75;100174.36;1887430;76;22687;-45
2021/05/02 11:14:27;;;;;;;1.82;1.02;;;;;;;16.66;92.32;100177.30;1856067;77;21119;-45
2021/05/02 11:17:05;;;;;;;3.75;2.40;;;;;;;16.63;91.98;100171.06;1836568;77;21182;-45
2021/05/02 11:19:40;;;;;;;0.95;0.72;;;;;;;16.65;92.07;100174.88;1854056;77;21442;-45
2021/05/02 11:22:08;;;;;;;0.93;0.53;;;;;;;16.63;91.83;100171.06;1854217;77;21474;-45
2021/05/02 11:24:45;;;;;;;1.22;1.12;;;;;;;16.62;92.07;100164.52;1853702;77;21652;-45
2021/05/02 11:30:10;;;;;;;1.17;1.07;;;;;;;16.55;91.94;100163.62;1781250;76;22735;-46
2021/05/02 11:32:38;;;;;;;0.28;0.28;;;;;;;16.45;92.28;100157.06;1761470;80;21594;-46
2021/05/02 11:35:20;;;;;;;0.78;0.78;;;;;;;16.40;92.90;100155.85;1785794;78;21173;-46
2021/05/02 11:37:59;;;;;;;1.25;0.88;;;;;;;16.33;92.98;100157.71;1781603;80;21168;-41
2021/05/02 11:40:33;;;;;;;0.75;0.70;;;;;;;16.27;93.49;100154.31;1785832;80;21537;-46
2021/05/02 11:43:16;;;;;;;0.50;0.50;;;;;;;16.21;93.72;100145.15;1766980;80;21148;-42
2021/05/02 11:45:58;;;;;;;0.57;0.50;;;;;;;16.17;94.24;100140.03;1737463;82;21616;-47
2021/05/02 11:48:39;;;;;;;0.90;0.88;;;;;;;16.13;94.64;100138.50;1736420;81;21225;-43
2021/05/02 11:51:08;;;;;;;4.42;1.27;;;;;;;16.06;95.04;100133.47;1724809;83;21470;-42